createdAt,value
2022-08-22T00:01:39.596Z,1.90
2022-08-22T00:03:04.029Z,1.90
2022-08-22T00:03:04.652Z,1.75
2022-08-22T00:03:09.593Z,1.90
2022-08-22T00:04:23.438Z,2.78
2022-08-22T00:07:01.235Z,2.17
2022-08-22T00:09:38.895Z,2.55
2022-08-22T00:12:22.715Z,2.03
2022-08-22T00:15:42.423Z,2.03
2022-08-22T00:18:12.324Z,2.20
2022-08-22T00:20:57.213Z,2.03
2022-08-22T00:23:32.989Z,1.95
2022-08-22T00:26:16.864Z,2.40
2022-08-22T00:29:09.035Z,2.10
2022-08-22T00:31:42.604Z,2.00
2022-08-22T00:34:16.118Z,2.17
2022-08-22T00:37:08.903Z,1.85
2022-08-22T00:39:49.933Z,2.22
2022-08-22T00:42:29.067Z,2.55
2022-08-22T00:45:29.933Z,2.75
2022-08-22T00:48:30.353Z,2.35
2022-08-22T00:51:25.228Z,2.28
2022-08-22T00:54:17.502Z,2.00
2022-08-22T00:57:22.517Z,2.30
2022-08-22T01:00:12.975Z,2.30
2022-08-22T01:02:52.667Z,1.90
2022-08-22T01:05:33.740Z,1.95
2022-08-22T01:08:44.080Z,1.98
2022-08-22T01:11:35.053Z,2.00
2022-08-22T01:14:38.008Z,2.00
2022-08-22T01:17:48.155Z,2.05
2022-08-22T01:20:38.709Z,2.00
2022-08-22T01:23:31.298Z,2.22
2022-08-22T01:26:33.624Z,1.92
2022-08-22T01:29:14.946Z,1.88
2022-08-22T01:31:58.635Z,1.90
2022-08-22T01:34:42.276Z,2.10
2022-08-22T01:37:45.796Z,1.92
2022-08-22T01:40:27.370Z,1.73
2022-08-22T01:43:17.702Z,2.35
2022-08-22T01:46:23.208Z,1.63
2022-08-22T01:49:18.782Z,1.92
2022-08-22T01:51:54.249Z,1.92
2022-08-22T01:54:43.945Z,2.67
2022-08-22T01:57:16.101Z,2.25
2022-08-22T01:59:50.115Z,1.92
2022-08-22T02:02:36.896Z,2.07
2022-08-22T02:05:17.306Z,2.08
2022-08-22T02:07:57.729Z,1.95
2022-08-22T02:10:56.936Z,2.43
2022-08-22T02:14:00.964Z,1.97
2022-08-22T02:16:46.832Z,2.15
2022-08-22T02:19:34.144Z,1.90
2022-08-22T02:22:28.027Z,2.42
2022-08-22T02:25:10.993Z,2.10
2022-08-22T02:28:10.995Z,2.23
2022-08-22T02:31:26.346Z,2.30
2022-08-22T02:33:59.358Z,2.27
2022-08-22T02:36:46.788Z,2.13
2022-08-22T02:39:23.152Z,2.30
2022-08-22T02:42:03.297Z,2.30
2022-08-22T02:44:39.066Z,2.37
2022-08-22T02:47:13.797Z,2.23
2022-08-22T02:50:00.411Z,2.93
2022-08-22T02:52:32.184Z,1.97
2022-08-22T02:55:08.205Z,2.50
2022-08-22T02:57:44.719Z,2.63
2022-08-22T03:00:41.525Z,2.40
2022-08-22T03:03:26.356Z,2.57
2022-08-22T03:06:01.890Z,2.00
2022-08-22T03:08:47.325Z,2.20
2022-08-22T03:11:32.777Z,2.20
2022-08-22T03:14:21.248Z,2.27
2022-08-22T03:16:58.420Z,2.03
2022-08-22T03:19:30.668Z,2.00
2022-08-22T03:22:13.621Z,2.43
2022-08-22T03:25:07.472Z,2.33
2022-08-22T03:27:42.341Z,2.30
2022-08-22T03:30:33.332Z,2.90
2022-08-22T03:33:21.897Z,2.00
2022-08-22T03:35:57.265Z,2.73
2022-08-22T03:38:31.951Z,2.13
2022-08-22T03:41:14.042Z,2.70
2022-08-22T03:44:16.845Z,2.03
2022-08-22T03:46:55.066Z,2.10
2022-08-22T03:50:08.297Z,2.33
2022-08-22T03:53:04.806Z,3.10
2022-08-22T03:55:55.118Z,2.50
2022-08-22T03:58:40.238Z,2.53
2022-08-22T04:01:54.038Z,2.47
2022-08-22T04:04:44.570Z,3.27
2022-08-22T04:07:35.388Z,2.30
2022-08-22T04:10:28.947Z,2.10
2022-08-22T04:13:57.450Z,2.27
2022-08-22T04:16:43.934Z,2.43
2022-08-22T04:19:28.155Z,2.23
2022-08-22T04:25:46.504Z,2.13
2022-08-22T04:28:27.866Z,3.13
2022-08-22T04:31:07.153Z,2.63
2022-08-22T04:33:59.788Z,2.93
2022-08-22T04:36:39.729Z,2.57
2022-08-22T04:39:20.797Z,2.50
2022-08-22T04:42:11.124Z,2.60
2022-08-22T04:45:01.647Z,2.77
2022-08-22T04:47:46.073Z,2.43
2022-08-22T04:50:35.059Z,2.47
2022-08-22T04:53:32.096Z,2.20
2022-08-22T04:56:07.789Z,1.87
2022-08-22T04:58:57.188Z,3.00
2022-08-22T05:01:46.423Z,2.60
2022-08-22T05:04:28.204Z,2.10
2022-08-22T05:07:03.205Z,2.70
2022-08-22T05:09:38.140Z,2.90
2022-08-22T05:12:12.117Z,2.83
2022-08-22T05:14:48.731Z,2.80
2022-08-22T05:17:22.793Z,2.50
2022-08-22T05:19:56.728Z,2.77
2022-08-22T05:22:29.725Z,1.97
2022-08-22T05:25:05.598Z,2.90
2022-08-22T05:27:48.470Z,2.35
2022-08-22T05:30:25.472Z,2.50
2022-08-22T05:33:15.403Z,2.30
2022-08-22T05:35:57.199Z,2.47
2022-08-22T05:38:36.032Z,3.53
2022-08-22T05:41:12.485Z,2.70
2022-08-22T05:43:44.472Z,2.35
2022-08-22T05:46:40.015Z,3.67
2022-08-22T05:49:17.761Z,2.88
2022-08-22T05:52:14.939Z,2.20
2022-08-22T05:55:11.458Z,1.88
2022-08-22T05:57:43.623Z,2.67
2022-08-22T06:00:19.132Z,2.13
2022-08-22T06:03:19.220Z,2.28
2022-08-22T06:05:52.157Z,2.22
2022-08-22T06:08:38.680Z,2.30
2022-08-22T06:11:18.189Z,2.08
2022-08-22T06:14:15.037Z,2.00
2022-08-22T06:16:54.039Z,1.80
2022-08-22T06:19:25.895Z,2.08
2022-08-22T06:21:58.049Z,2.28
2022-08-22T06:24:30.212Z,2.60
2022-08-22T06:27:05.357Z,1.65
2022-08-22T06:29:42.674Z,1.60
2022-08-22T06:32:34.160Z,2.25
2022-08-22T06:35:52.615Z,2.03
2022-08-22T06:38:28.448Z,1.90
2022-08-22T06:41:01.366Z,1.80
2022-08-22T06:43:38.149Z,1.70
2022-08-22T06:46:09.961Z,1.63
2022-08-22T06:48:41.645Z,1.50
2022-08-22T06:51:13.342Z,1.55
2022-08-22T06:53:50.521Z,1.52
2022-08-22T06:56:26.757Z,1.63
2022-08-22T06:58:59.542Z,1.83
2022-08-22T07:01:35.373Z,1.75
2022-08-22T07:04:08.842Z,1.40
2022-08-22T07:06:43.239Z,2.33
2022-08-22T07:09:28.204Z,1.35
2022-08-22T07:12:01.973Z,2.03
2022-08-22T07:14:43.910Z,1.80
2022-08-22T07:17:21.746Z,2.38
2022-08-22T07:20:32.204Z,1.75
2022-08-22T07:23:09.177Z,1.48
2022-08-22T07:26:06.569Z,1.95
2022-08-22T07:28:51.359Z,1.52
2022-08-22T07:31:39.912Z,1.63
2022-08-22T07:34:37.043Z,1.48
2022-08-22T07:37:50.378Z,1.80
2022-08-22T07:40:27.466Z,1.40
2022-08-22T07:43:22.996Z,1.60
2022-08-22T07:45:56.062Z,1.70
2022-08-22T07:48:33.991Z,1.60
2022-08-22T07:51:24.968Z,1.60
2022-08-22T07:54:06.092Z,1.70
2022-08-22T07:56:42.664Z,1.40
2022-08-22T07:59:17.302Z,1.77
2022-08-22T08:01:51.560Z,1.60
2022-08-22T08:04:29.734Z,1.40
2022-08-22T08:07:02.315Z,1.20
2022-08-22T08:09:39.214Z,1.45
2022-08-22T08:12:11.401Z,1.67
2022-08-22T08:14:44.125Z,2.13
2022-08-22T08:17:23.906Z,2.17
2022-08-22T08:19:55.715Z,1.42
2022-08-22T08:22:27.423Z,1.02
2022-08-22T08:24:59.154Z,1.80
2022-08-22T08:27:51.412Z,1.38
2022-08-22T08:30:32.515Z,1.33
2022-08-22T08:33:24.199Z,1.55
2022-08-22T08:36:06.990Z,1.73
2022-08-22T08:38:48.746Z,2.13
2022-08-22T08:41:32.746Z,1.23
2022-08-22T08:44:40.894Z,1.35
2022-08-22T08:47:44.817Z,1.58
2022-08-22T08:50:47.214Z,1.52
2022-08-22T08:53:29.378Z,1.10
2022-08-22T08:56:30.993Z,1.45
2022-08-22T08:59:21.562Z,1.02
2022-08-22T09:02:02.735Z,1.35
2022-08-22T09:05:31.454Z,1.08
2022-08-22T09:08:34.206Z,1.40
2022-08-22T09:11:12.162Z,1.20
2022-08-22T09:13:55.664Z,1.58
2022-08-22T09:16:58.188Z,1.20
2022-08-22T09:19:35.399Z,1.02
2022-08-22T09:22:50.230Z,1.20
2022-08-22T09:25:39.261Z,1.10
2022-08-22T09:28:40.541Z,1.20
2022-08-22T09:31:44.759Z,1.15
2022-08-22T09:37:13.940Z,1.30
2022-08-22T09:39:58.417Z,1.30
2022-08-22T09:40:16.478Z,1.20
2022-08-22T09:42:36.964Z,0.95
2022-08-22T09:45:11.847Z,1.17
2022-08-22T09:48:02.172Z,1.52
2022-08-22T09:50:54.703Z,1.15
2022-08-22T09:54:04.721Z,1.05
2022-08-22T09:56:54.302Z,1.42
2022-08-22T09:59:41.182Z,1.27
2022-08-22T10:02:36.116Z,1.40
2022-08-22T10:05:54.916Z,1.27
2022-08-22T10:08:55.080Z,1.25
2022-08-22T10:11:30.021Z,1.23
2022-08-22T10:14:09.524Z,1.27
2022-08-22T10:16:51.745Z,1.33
2022-08-22T10:19:38.071Z,0.90
2022-08-22T10:22:51.992Z,1.13
2022-08-22T10:25:37.449Z,1.63
2022-08-22T10:28:31.667Z,1.40
2022-08-22T10:31:30.991Z,1.48
2022-08-22T10:34:14.876Z,1.63
2022-08-22T10:36:52.601Z,1.20
2022-08-22T10:39:44.009Z,1.10
2022-08-22T10:42:25.573Z,1.00
2022-08-22T10:45:10.442Z,0.85
2022-08-22T10:48:09.789Z,0.90
2022-08-22T10:50:50.039Z,5.70
2022-08-22T10:53:30.817Z,1.10
2022-08-22T10:56:10.239Z,0.82
2022-08-22T10:59:11.032Z,1.15
2022-08-22T11:01:53.185Z,0.77
2022-08-22T11:04:45.043Z,1.10
2022-08-22T11:07:28.565Z,1.08
2022-08-22T11:10:03.951Z,1.02
2022-08-22T11:12:41.682Z,4.97
2022-08-22T11:15:46.945Z,1.40
2022-08-22T11:19:02.817Z,1.15
2022-08-22T11:21:52.324Z,1.13
2022-08-22T11:24:55.875Z,1.15
2022-08-22T11:28:07.853Z,1.20
2022-08-22T11:30:58.279Z,1.10
2022-08-22T11:33:46.402Z,1.20
2022-08-22T11:36:41.328Z,1.33
2022-08-22T11:39:34.562Z,1.23
2022-08-22T11:42:13.841Z,1.20
2022-08-22T11:44:54.048Z,1.00
2022-08-22T11:47:30.921Z,0.75
2022-08-22T11:50:11.404Z,1.10
2022-08-22T11:52:53.770Z,1.40
2022-08-22T11:55:54.760Z,1.35
2022-08-22T11:58:40.692Z,1.05
2022-08-22T12:01:18.582Z,1.55
2022-08-22T12:04:12.902Z,1.30
2022-08-22T12:06:50.767Z,1.42
2022-08-22T12:10:04.984Z,1.00
2022-08-22T12:12:58.157Z,1.10
2022-08-22T12:15:38.636Z,1.25
2022-08-22T12:18:35.295Z,1.38
2022-08-22T12:21:22.880Z,1.65
2022-08-22T12:24:19.282Z,1.30
2022-08-22T12:27:28.823Z,1.10
2022-08-22T12:30:13.889Z,1.20
2022-08-22T12:33:07.425Z,1.35
2022-08-22T12:36:05.877Z,1.00
2022-08-22T12:39:08.676Z,1.23
2022-08-22T12:42:04.236Z,1.23
2022-08-22T12:45:17.825Z,1.52
2022-08-22T12:48:15.969Z,1.20
2022-08-22T12:50:47.474Z,1.30
2022-08-22T12:53:49.371Z,1.58
2022-08-22T12:56:27.462Z,1.20
2022-08-22T12:59:22.725Z,1.08
2022-08-22T13:01:56.862Z,2.42
2022-08-22T13:04:33.933Z,1.50
2022-08-22T13:07:32.157Z,1.77
2022-08-22T13:10:17.463Z,1.80
2022-08-22T13:12:51.572Z,2.20
2022-08-22T13:15:36.323Z,1.52
2022-08-22T13:18:29.360Z,1.40
2022-08-22T13:21:03.225Z,2.33
2022-08-22T13:23:42.574Z,2.55
2022-08-22T13:26:31.668Z,1.98
2022-08-22T13:29:26.961Z,1.80
2022-08-22T13:32:00.571Z,1.70
2022-08-22T13:34:43.730Z,2.15
2022-08-22T13:37:17.356Z,1.30
2022-08-22T13:39:53.871Z,2.70
2022-08-22T13:42:30.470Z,4.00
2022-08-22T13:45:05.210Z,5.82
2022-08-22T13:47:39.607Z,4.45
2022-08-22T13:50:19.300Z,2.65
2022-08-22T13:52:56.413Z,3.38
2022-08-22T13:55:35.376Z,2.30
2022-08-22T13:58:27.397Z,4.93
2022-08-22T14:01:25.576Z,3.17
2022-08-22T14:04:02.670Z,1.63
2022-08-22T14:06:51.876Z,1.92
2022-08-22T14:09:42.326Z,2.28
2022-08-22T14:12:18.056Z,2.63
2022-08-22T14:14:59.598Z,2.13
2022-08-22T14:17:34.240Z,2.90
2022-08-22T14:20:13.784Z,5.80
2022-08-22T14:23:10.768Z,3.55
2022-08-22T14:25:43.134Z,2.90
2022-08-22T14:28:27.527Z,3.03
2022-08-22T14:31:07.433Z,1.90
2022-08-22T14:33:44.402Z,4.25
2022-08-22T14:36:23.435Z,3.78
2022-08-22T14:39:12.039Z,2.40
2022-08-22T14:41:52.456Z,2.88
2022-08-22T14:44:38.717Z,3.80
2022-08-22T14:47:54.698Z,2.45
2022-08-22T14:51:12.507Z,3.35
2022-08-22T14:53:44.156Z,2.25
2022-08-22T14:56:22.630Z,2.72
2022-08-22T14:58:56.778Z,3.88
2022-08-22T15:01:32.578Z,5.00
2022-08-22T15:04:10.173Z,2.15
2022-08-22T15:06:48.183Z,2.88
2022-08-22T15:09:42.024Z,3.53
2022-08-22T15:12:26.173Z,2.40
2022-08-22T15:15:02.550Z,1.90
2022-08-22T15:17:40.234Z,2.22
2022-08-22T15:20:27.571Z,1.75
2022-08-22T15:23:02.781Z,1.60
2022-08-22T15:25:43.328Z,1.83
2022-08-22T15:28:20.477Z,2.70
2022-08-22T15:30:54.168Z,2.08
2022-08-22T15:33:32.886Z,1.63
2022-08-22T15:36:23.301Z,4.78
2022-08-22T15:39:28.767Z,3.53
2022-08-22T15:42:01.259Z,3.67
2022-08-22T15:44:38.374Z,3.25
2022-08-22T15:47:36.127Z,4.57
2022-08-22T15:50:15.310Z,3.72
2022-08-22T15:53:14.001Z,4.57
2022-08-22T15:56:18.567Z,4.13
2022-08-22T15:59:13.207Z,4.32
2022-08-22T16:01:53.217Z,2.22
2022-08-22T16:04:47.448Z,1.75
2022-08-22T16:07:43.071Z,2.30
2022-08-22T16:10:23.965Z,4.60
2022-08-22T16:13:11.790Z,1.50
2022-08-22T16:15:54.372Z,1.50
2022-08-22T16:18:34.271Z,1.73
2022-08-22T16:21:18.168Z,1.60
2022-08-22T16:23:49.851Z,2.25
2022-08-22T16:26:30.792Z,2.88
2022-08-22T16:29:41.138Z,4.05
2022-08-22T16:32:13.342Z,3.20
2022-08-22T16:34:45.944Z,3.20
2022-08-22T16:37:53.286Z,2.38
2022-08-22T16:40:26.116Z,3.55
2022-08-22T16:43:30.336Z,2.83
2022-08-22T16:46:03.821Z,2.30
2022-08-22T16:48:36.728Z,2.38
2022-08-22T16:51:18.461Z,2.47
2022-08-22T16:54:08.367Z,2.63
2022-08-22T16:56:46.789Z,2.65
2022-08-22T16:59:23.423Z,2.75
2022-08-22T17:02:15.729Z,1.90
2022-08-22T17:05:12.148Z,2.45
2022-08-22T17:07:54.110Z,2.17
2022-08-22T17:10:58.070Z,5.55
2022-08-22T17:13:51.584Z,4.65
2022-08-22T17:16:35.478Z,3.15
2022-08-22T17:19:25.721Z,2.78
2022-08-22T17:22:01.295Z,2.25
2022-08-22T17:24:37.777Z,4.03
2022-08-22T17:27:31.729Z,3.15
2022-08-22T17:30:22.080Z,1.95
2022-08-22T17:33:15.070Z,2.33
2022-08-22T17:36:34.447Z,1.95
2022-08-22T17:39:30.785Z,1.65
2022-08-22T17:42:39.179Z,1.40
2022-08-22T17:45:25.833Z,1.85
2022-08-22T17:48:08.446Z,1.60
2022-08-22T17:51:12.752Z,1.65
2022-08-22T17:53:48.129Z,2.20
2022-08-22T17:56:32.954Z,1.80
2022-08-22T17:59:30.353Z,1.70
2022-08-22T18:02:11.105Z,1.60
2022-08-22T18:05:07.044Z,1.50
2022-08-22T18:07:41.853Z,1.38
2022-08-22T18:10:29.202Z,1.30
2022-08-22T18:13:25.699Z,1.20
2022-08-22T18:16:02.326Z,1.20
2022-08-22T18:18:50.085Z,1.10
2022-08-22T18:21:50.903Z,1.35
2022-08-22T18:24:31.279Z,1.10
2022-08-22T18:27:08.319Z,1.15
2022-08-22T18:29:44.061Z,1.08
2022-08-22T18:32:32.952Z,1.00
2022-08-22T18:35:22.134Z,0.70
2022-08-22T18:37:59.863Z,0.95
2022-08-22T18:40:36.860Z,1.00
2022-08-22T18:43:38.885Z,1.02
2022-08-22T18:46:31.776Z,0.95
2022-08-22T18:49:20.058Z,0.98
2022-08-22T18:52:09.967Z,0.85
2022-08-22T18:55:02.939Z,1.08
2022-08-22T18:57:55.755Z,1.20
2022-08-22T19:00:39.525Z,0.98
2022-08-22T19:03:26.151Z,0.90
2022-08-22T19:06:07.982Z,0.90
2022-08-22T19:08:53.473Z,1.20
2022-08-22T19:11:43.024Z,1.10
2022-08-22T19:14:26.980Z,0.80
2022-08-22T19:17:15.054Z,0.80
2022-08-22T19:20:27.796Z,2.90
2022-08-22T19:23:37.573Z,1.38
2022-08-22T19:26:34.837Z,0.90
2022-08-22T19:29:26.365Z,1.15
2022-08-22T19:31:59.660Z,0.90
2022-08-22T19:34:32.666Z,0.90
2022-08-22T19:37:33.314Z,1.05
2022-08-22T19:40:10.421Z,1.05
2022-08-22T19:42:44.096Z,0.93
2022-08-22T19:45:26.626Z,1.00
2022-08-22T19:48:13.185Z,0.82
2022-08-22T19:50:45.681Z,1.02
2022-08-22T19:53:38.608Z,1.20
2022-08-22T19:56:27.854Z,0.90
2022-08-22T19:59:24.088Z,0.90
2022-08-22T20:02:17.133Z,1.25
2022-08-22T20:04:52.805Z,0.88
2022-08-22T20:07:38.475Z,1.00
2022-08-22T20:10:37.406Z,1.10
2022-08-22T20:13:22.680Z,1.38
2022-08-22T20:16:16.480Z,1.00
2022-08-22T20:18:55.790Z,0.90
2022-08-22T20:21:47.286Z,1.10
2022-08-22T20:24:28.373Z,1.17
2022-08-22T20:27:15.889Z,1.00
2022-08-22T20:30:05.911Z,1.20
2022-08-22T20:32:50.634Z,0.97
2022-08-22T20:35:26.873Z,0.90
2022-08-22T20:38:09.201Z,1.10
2022-08-22T20:40:57.009Z,1.10
2022-08-22T20:43:38.000Z,1.57
2022-08-22T20:46:43.812Z,1.30
2022-08-22T20:49:21.464Z,1.20
2022-08-22T20:51:54.497Z,1.00
2022-08-22T20:54:28.566Z,1.73
2022-08-22T20:57:10.850Z,1.13
2022-08-22T20:59:59.178Z,1.20
2022-08-22T21:02:45.040Z,1.17
2022-08-22T21:05:21.267Z,1.20
2022-08-22T21:08:22.461Z,0.90
2022-08-22T21:11:20.017Z,1.10
2022-08-22T21:13:51.938Z,1.00
2022-08-22T21:16:32.068Z,1.03
2022-08-22T21:19:04.007Z,1.13
2022-08-22T21:21:35.788Z,1.17
2022-08-22T21:24:08.000Z,1.20
2022-08-22T21:26:45.843Z,1.03
2022-08-22T21:29:17.430Z,0.97
2022-08-22T21:32:14.074Z,1.13
2022-08-22T21:34:47.490Z,1.17
2022-08-22T21:37:39.905Z,1.00
2022-08-22T21:40:20.049Z,1.40
2022-08-22T21:43:00.712Z,1.53
2022-08-22T21:45:39.705Z,1.13
2022-08-22T21:48:37.541Z,1.10
2022-08-22T21:51:36.616Z,1.00
2022-08-22T21:54:29.595Z,1.30
2022-08-22T21:57:10.446Z,1.20
2022-08-22T21:59:51.773Z,1.00
2022-08-22T22:02:39.648Z,1.00
2022-08-22T22:05:14.170Z,1.20
2022-08-22T22:07:46.962Z,1.13
2022-08-22T22:10:19.524Z,1.10
2022-08-22T22:12:53.728Z,1.23
2022-08-22T22:15:27.570Z,1.83
2022-08-22T22:17:59.908Z,1.23
2022-08-22T22:20:33.448Z,1.00
2022-08-22T22:23:05.324Z,1.30
2022-08-22T22:25:39.910Z,1.40
2022-08-22T22:28:17.992Z,1.30
2022-08-22T22:30:51.459Z,1.13
2022-08-22T22:33:25.271Z,1.33
2022-08-22T22:35:58.786Z,1.47
2022-08-22T22:38:30.553Z,1.00
2022-08-22T22:41:02.568Z,1.23
2022-08-22T22:43:34.413Z,1.23
2022-08-22T22:46:06.490Z,1.23
2022-08-22T22:48:38.278Z,1.30
2022-08-22T22:51:10.926Z,1.20
2022-08-22T22:53:43.844Z,1.10
2022-08-22T22:56:18.096Z,1.43
2022-08-22T22:58:58.999Z,1.33
2022-08-22T23:01:33.399Z,1.23
2022-08-22T23:04:05.630Z,1.83
2022-08-22T23:06:37.965Z,1.63
2022-08-22T23:09:09.760Z,1.40
2022-08-22T23:11:46.040Z,1.20
2022-08-22T23:14:17.819Z,1.50
2022-08-22T23:16:49.773Z,1.40
2022-08-22T23:19:21.613Z,1.30
2022-08-22T23:21:55.555Z,1.10
2022-08-22T23:24:28.134Z,1.20
2022-08-22T23:27:00.118Z,1.23
2022-08-22T23:29:31.967Z,1.20
2022-08-22T23:32:04.264Z,1.10
2022-08-22T23:34:39.142Z,1.20
2022-08-22T23:37:10.905Z,1.30
2022-08-22T23:39:42.764Z,1.17
2022-08-22T23:42:14.736Z,1.37
2022-08-22T23:44:46.964Z,1.30
2022-08-22T23:47:18.820Z,1.17
2022-08-22T23:49:50.722Z,1.20
2022-08-22T23:52:22.516Z,1.30
2022-08-22T23:54:55.785Z,1.40
2022-08-22T23:57:29.469Z,1.20
